Time;durP1;ratioP1;P1;durP2;ratioP2;P2;SDS_P1;SDS_P2;PMS_P1;PMS_P2;Temp;Humidity;BMP_temperature;BMP_pressure;BME280_temperature;BME280_humidity;BME280_pressure;Samples;Min_cycle;Max_cycle;Signal;HPM_P1;HPM_P2
2023/03/27 00:01:25;;;;;;;0.50;0.50;;;;;;;24.81;35.21;98727.92;1827569;77;28319;-47
2023/03/27 00:04:14;;;;;;;0.30;0.30;;;;;;;24.80;35.21;98741.94;1835241;77;28289;-45
2023/03/27 00:07:02;;;;;;;0.40;0.40;;;;;;;24.77;35.10;98771.30;1831910;77;28315;-45
2023/03/27 00:09:52;;;;;;;1.30;0.20;;;;;;;24.77;35.02;98765.80;1873347;76;28127;-44
2023/03/27 00:12:43;;;;;;;0.20;0.20;;;;;;;24.76;34.63;98780.62;1861267;76;28802;-44
2023/03/27 00:15:32;;;;;;;0.20;0.20;;;;;;;24.81;34.48;98782.06;1826305;77;28353;-44
2023/03/27 00:18:21;;;;;;;0.30;0.30;;;;;;;24.80;34.71;98790.00;1870377;76;27801;-44
2023/03/27 00:21:10;;;;;;;0.40;0.40;;;;;;;24.82;34.82;98797.43;1858129;76;27735;-46
2023/03/27 00:23:59;;;;;;;0.60;0.42;;;;;;;24.82;34.85;98816.66;1817631;76;28204;-48
2023/03/27 00:26:47;;;;;;;0.30;0.30;;;;;;;24.80;34.88;98822.43;1833765;77;28115;-45
2023/03/27 00:29:36;;;;;;;0.50;0.50;;;;;;;24.82;34.89;98835.89;1856468;75;28208;-48
2023/03/27 00:32:25;;;;;;;0.33;0.33;;;;;;;24.81;34.90;98839.17;1879173;74;28038;-46
2023/03/27 00:35:13;;;;;;;0.40;0.40;;;;;;;24.80;34.92;98856.77;1874481;74;28047;-48
2023/03/27 00:38:02;;;;;;;0.50;0.30;;;;;;;24.82;34.94;98857.86;1873414;76;28012;-46
2023/03/27 00:40:53;;;;;;;0.37;0.37;;;;;;;24.80;34.98;98870.50;1882504;74;28167;-48
2023/03/27 00:43:43;;;;;;;0.40;0.40;;;;;;;24.81;34.97;98887.81;1877875;75;28002;-45
2023/03/27 00:46:37;;;;;;;0.33;0.33;;;;;;;24.82;35.01;98886.71;1885995;74;27989;-46
2023/03/27 00:49:29;;;;;;;0.45;0.45;;;;;;;24.80;35.02;98876.53;1879907;75;27986;-45
2023/03/27 00:52:20;;;;;;;0.40;0.40;;;;;;;24.80;35.04;98889.73;1890004;74;28019;-45
2023/03/27 00:55:13;;;;;;;0.30;0.30;;;;;;;24.79;35.07;98896.84;1884610;75;28492;-46
2023/03/27 00:58:04;;;;;;;0.50;0.30;;;;;;;24.79;35.07;98900.96;1891239;74;27983;-46
2023/03/27 01:00:54;;;;;;;0.20;0.20;;;;;;;24.79;35.06;98912.78;1885099;74;28030;-45
2023/03/27 01:03:46;;;;;;;0.30;0.30;;;;;;;24.81;35.03;98911.17;1878219;74;28124;-45
2023/03/27 01:06:36;;;;;;;0.60;0.30;;;;;;;24.81;35.05;98917.47;1879701;74;28565;-45
2023/03/27 01:09:25;;;;;;;0.20;0.20;;;;;;;24.80;35.04;98912.25;1878717;74;28025;-48
2023/03/27 01:12:26;;;;;;;0.37;0.37;;;;;;;24.82;35.02;98917.77;1883126;75;28042;-46
2023/03/27 01:15:26;;;;;;;0.33;0.33;;;;;;;24.83;35.04;98922.72;1884840;75;28027;-46
2023/03/27 01:18:33;;;;;;;0.50;0.50;;;;;;;24.80;35.08;98922.70;1892220;74;28098;-46
2023/03/27 01:21:46;;;;;;;0.30;0.30;;;;;;;24.79;35.12;98929.80;1874223;75;28007;-46
2023/03/27 01:24:43;;;;;;;0.57;0.37;;;;;;;24.78;35.11;98916.64;1872894;75;28440;-47
2023/03/27 01:27:53;;;;;;;0.20;0.20;;;;;;;24.76;35.18;98913.84;1885568;74;28131;-45
2023/03/27 01:31:00;;;;;;;0.50;0.30;;;;;;;24.78;35.16;98921.30;1885637;74;28076;-44
2023/03/27 01:33:54;;;;;;;0.30;0.30;;;;;;;24.78;35.14;98911.69;1879700;75;28043;-45
2023/03/27 01:37:05;;;;;;;0.30;0.30;;;;;;;24.76;35.15;98914.70;1879798;74;28172;-43
2023/03/27 01:39:55;;;;;;;0.30;0.30;;;;;;;24.79;35.17;98913.32;1876598;75;28077;-47
2023/03/27 01:43:02;;;;;;;0.70;0.28;;;;;;;24.78;35.17;98909.77;1877367;75;28006;-48
2023/03/27 01:45:56;;;;;;;0.80;0.30;;;;;;;24.78;35.17;98915.27;1885070;74;28045;-47
2023/03/27 01:48:51;;;;;;;0.20;0.20;;;;;;;24.78;35.17;98911.14;1888911;75;28094;-44
2023/03/27 01:51:42;;;;;;;0.20;0.20;;;;;;;24.81;35.12;98912.54;1883643;75;28301;-44
2023/03/27 01:54:33;;;;;;;0.23;0.23;;;;;;;24.82;35.12;98913.64;1877366;75;28127;-47
2023/03/27 01:57:28;;;;;;;0.23;0.23;;;;;;;24.83;35.12;98908.98;1883679;75;27984;-44
2023/03/27 02:00:20;;;;;;;0.13;0.13;;;;;;;24.82;35.12;98913.64;1884757;75;28035;-44
2023/03/27 02:03:11;;;;;;;0.60;0.40;;;;;;;24.81;35.19;98911.97;1889454;74;28056;-45
2023/03/27 02:06:08;;;;;;;0.20;0.20;;;;;;;24.81;35.17;98913.34;1900598;74;27994;-47
2023/03/27 02:09:16;;;;;;;0.30;0.30;;;;;;;24.83;35.16;98918.06;1876157;75;28046;-45
2023/03/27 02:12:10;;;;;;;0.20;0.20;;;;;;;24.83;35.12;98915.84;1874870;75;28661;-48
2023/03/27 02:15:11;;;;;;;0.20;0.20;;;;;;;24.81;35.19;98924.33;1879487;75;28156;-44
2023/03/27 02:18:06;;;;;;;0.30;0.30;;;;;;;24.81;35.16;98918.84;1898369;74;28124;-45
2023/03/27 02:20:55;;;;;;;0.37;0.37;;;;;;;24.80;35.18;98917.20;1867144;75;28069;-47
2023/03/27 02:23:44;;;;;;;0.30;0.30;;;;;;;24.79;35.17;98916.91;1884572;75;28018;-46
2023/03/27 02:26:34;;;;;;;0.20;0.20;;;;;;;24.81;35.19;98929.02;1885365;74;27985;-44
2023/03/27 02:29:33;;;;;;;0.40;0.40;;;;;;;24.80;35.19;98932.84;1879686;75;28084;-47
2023/03/27 02:32:39;;;;;;;0.50;0.20;;;;;;;24.80;35.21;98932.84;1901328;74;28041;-48
2023/03/27 02:35:55;;;;;;;0.20;0.20;;;;;;;24.80;35.09;98941.92;1869469;75;27991;-47
2023/03/27 02:38:50;;;;;;;0.10;0.10;;;;;;;24.76;35.00;98933.93;1889788;75;28089;-45
2023/03/27 02:41:47;;;;;;;0.30;0.30;;;;;;;24.76;35.22;98934.44;1893756;74;28102;-47
2023/03/27 02:44:58;;;;;;;0.10;0.10;;;;;;;24.76;35.29;98939.94;1794073;79;28241;-46
2023/03/27 02:47:53;;;;;;;0.10;0.10;;;;;;;24.72;35.38;98945.11;1829395;76;28112;-46
2023/03/27 02:50:53;;;;;;;0.20;0.20;;;;;;;24.73;35.38;98963.26;1821751;78;28218;-45
2023/03/27 02:53:54;;;;;;;0.17;0.17;;;;;;;24.74;35.35;98954.74;1827534;78;28263;-44
2023/03/27 02:56:45;;;;;;;0.23;0.23;;;;;;;24.76;35.34;98967.41;1818961;78;32092;-45
2023/03/27 02:59:43;;;;;;;0.20;0.20;;;;;;;24.76;35.38;98970.15;1811451;78;28195;-45
2023/03/27 03:02:36;;;;;;;0.47;0.47;;;;;;;24.78;35.36;98957.01;1834069;76;28219;-46
2023/03/27 03:05:26;;;;;;;0.20;0.20;;;;;;;24.76;35.33;98958.66;1838800;76;28011;-47
2023/03/27 03:08:14;;;;;;;0.10;0.10;;;;;;;24.79;35.31;98966.89;1801672;78;29286;-44
2023/03/27 03:11:05;;;;;;;0.35;0.35;;;;;;;24.79;35.31;98960.86;1812875;78;28132;-44
2023/03/27 03:13:54;;;;;;;0.25;0.25;;;;;;;24.81;35.30;98970.23;1822336;76;28107;-44
2023/03/27 03:16:43;;;;;;;0.50;0.37;;;;;;;24.80;35.28;98968.02;1874696;74;28171;-47
2023/03/27 03:19:32;;;;;;;0.10;0.10;;;;;;;24.80;35.32;98979.01;1818246;77;28330;-48
2023/03/27 03:22:20;;;;;;;0.10;0.10;;;;;;;24.82;35.32;98984.23;1874838;74;28058;-44
2023/03/27 03:25:13;;;;;;;0.20;0.20;;;;;;;24.82;35.33;98988.34;1814413;78;28143;-44
2023/03/27 03:28:06;;;;;;;0.20;0.20;;;;;;;24.83;35.37;98991.39;1867273;74;28134;-46
2023/03/27 03:30:54;;;;;;;0.40;0.20;;;;;;;24.84;35.37;99005.40;1831370;76;28770;-44
2023/03/27 03:33:43;;;;;;;0.47;0.20;;;;;;;24.84;35.34;99021.88;1798931;79;28256;-44
2023/03/27 03:36:32;;;;;;;0.20;0.20;;;;;;;24.83;35.38;99023.83;1804350;77;28087;-46
2023/03/27 03:39:22;;;;;;;0.10;0.10;;;;;;;24.84;35.42;99026.84;1830788;78;28183;-47
2023/03/27 03:42:11;;;;;;;0.10;0.10;;;;;;;24.86;35.38;99035.64;1832556;75;27744;-44
2023/03/27 03:45:00;;;;;;;0.10;0.10;;;;;;;24.86;35.40;99032.06;1843076;77;28257;-43
2023/03/27 03:47:49;;;;;;;0.10;0.10;;;;;;;24.87;35.35;99049.68;1814775;77;28319;-44
2023/03/27 03:50:38;;;;;;;0.60;0.60;;;;;;;24.89;35.34;99056.28;1863688;76;28212;-45
2023/03/27 03:53:26;;;;;;;0.70;0.20;;;;;;;24.91;35.34;99063.70;1833775;77;28533;-46
2023/03/27 03:56:16;;;;;;;0.70;0.15;;;;;;;24.91;35.36;99061.80;1856443;77;27688;-45
2023/03/27 03:59:05;;;;;;;0.20;0.20;;;;;;;24.91;35.32;99065.92;1844785;77;31658;-48
2023/03/27 04:01:54;;;;;;;0.20;0.20;;;;;;;24.91;35.34;99070.58;1854451;75;27817;-45
2023/03/27 04:04:43;;;;;;;0.20;0.20;;;;;;;24.93;35.32;99076.64;1826479;76;28217;-44
2023/03/27 04:07:34;;;;;;;0.20;0.17;;;;;;;24.94;35.25;99079.15;1806534;76;28287;-45
2023/03/27 04:10:29;;;;;;;0.13;0.13;;;;;;;24.97;35.23;99085.47;1814915;78;28751;-44
2023/03/27 04:13:17;;;;;;;0.20;0.20;;;;;;;24.97;35.23;99085.47;1863435;76;28058;-44
2023/03/27 04:16:07;;;;;;;0.30;0.10;;;;;;;24.88;35.26;99071.13;1855775;75;28046;-46
2023/03/27 04:18:59;;;;;;;0.30;0.10;;;;;;;24.97;35.28;99089.59;1841626;76;28079;-46
2023/03/27 04:21:51;;;;;;;0.10;0.10;;;;;;;24.99;35.27;99092.11;1861917;76;27995;-44
2023/03/27 04:24:43;;;;;;;0.05;0.05;;;;;;;25.00;35.25;99102.83;1857305;76;27720;-45
2023/03/27 04:27:30;;;;;;;1.10;0.20;;;;;;;25.02;35.27;99098.47;1867159;75;28033;-45
2023/03/27 04:30:22;;;;;;;0.10;0.10;;;;;;;25.02;35.23;99108.08;1846743;77;28146;-46
2023/03/27 04:33:28;;;;;;;0.20;0.13;;;;;;;25.03;35.21;99107.81;1855474;76;28169;-44
2023/03/27 04:36:24;;;;;;;0.42;0.23;;;;;;;25.01;35.24;99109.16;1846376;76;28721;-44
2023/03/27 04:39:25;;;;;;;0.10;0.10;;;;;;;25.01;35.31;99114.66;1841200;77;27685;-45
2023/03/27 04:42:14;;;;;;;0.20;0.20;;;;;;;25.01;35.35;99111.38;1797522;78;28278;-47
2023/03/27 04:45:03;;;;;;;0.20;0.20;;;;;;;25.04;35.31;99116.89;1846180;77;28261;-46
2023/03/27 04:47:53;;;;;;;0.10;0.10;;;;;;;25.04;35.18;99123.20;1854057;75;28325;-46
2023/03/27 04:50:48;;;;;;;0.30;0.20;;;;;;;25.05;35.24;99133.66;1865622;75;28182;-45
2023/03/27 04:53:35;;;;;;;0.20;0.20;;;;;;;25.06;35.22;99124.33;1934879;73;28004;-46
2023/03/27 04:56:23;;;;;;;0.10;0.10;;;;;;;25.05;35.25;99120.75;1874117;74;28173;-47
2023/03/27 04:59:17;;;;;;;0.10;0.10;;;;;;;25.06;35.21;99129.83;1873611;75;28186;-49
2023/03/27 05:02:07;;;;;;;0.00;0.00;;;;;;;25.08;35.21;99123.52;1856699;75;28295;-44
2023/03/27 05:05:00;;;;;;;0.20;0.20;;;;;;;25.10;35.19;99117.22;1875236;75;28228;-46
2023/03/27 05:07:50;;;;;;;0.10;0.10;;;;;;;25.09;35.14;99119.13;1914515;73;28087;-47
2023/03/27 05:10:41;;;;;;;0.30;0.00;;;;;;;25.09;35.14;99132.03;1883728;75;28242;-45
2023/03/27 05:13:29;;;;;;;0.23;0.15;;;;;;;25.12;35.11;99130.15;1875971;75;37428;-45
2023/03/27 05:16:18;;;;;;;0.00;0.00;;;;;;;25.14;35.06;99143.08;1890101;75;36420;-46
2023/03/27 05:19:07;;;;;;;0.10;0.10;;;;;;;25.15;35.05;99142.01;1874079;75;28267;-44
2023/03/27 05:22:00;;;;;;;0.40;0.20;;;;;;;25.13;35.06;99143.66;1928339;72;28120;-45
2023/03/27 05:24:48;;;;;;;0.70;0.20;;;;;;;25.15;35.04;99144.22;1919869;73;28084;-46
2023/03/27 05:27:39;;;;;;;0.10;0.10;;;;;;;25.18;35.01;99145.63;1888897;74;28274;-46
2023/03/27 05:30:29;;;;;;;0.20;0.20;;;;;;;25.19;35.00;99148.64;1890219;74;27686;-47
2023/03/27 05:33:19;;;;;;;0.20;0.20;;;;;;;25.21;34.58;99156.08;1853827;77;28249;-48
2023/03/27 05:36:08;;;;;;;0.10;0.10;;;;;;;25.25;34.30;99165.48;1929087;73;28099;-46
2023/03/27 05:38:58;;;;;;;0.20;0.20;;;;;;;25.20;34.36;99164.05;1910940;73;28219;-48
2023/03/27 05:41:48;;;;;;;1.50;0.13;;;;;;;25.20;34.46;99175.05;1908595;72;28189;-44
2023/03/27 05:44:38;;;;;;;0.00;0.00;;;;;;;25.21;34.44;99183.56;1879795;74;28298;-48
2023/03/27 05:47:27;;;;;;;0.15;0.15;;;;;;;25.23;34.45;99189.62;1835444;77;28251;-48
2023/03/27 05:50:16;;;;;;;0.00;0.00;;;;;;;25.24;34.39;99187.18;1822204;77;28295;-50
2023/03/27 05:53:11;;;;;;;0.00;0.00;;;;;;;25.22;34.13;99199.82;1834239;77;28196;-44
2023/03/27 05:56:12;;;;;;;0.10;0.10;;;;;;;25.21;34.00;99202.80;1863664;75;28271;-47
2023/03/27 05:59:03;;;;;;;0.08;0.08;;;;;;;25.15;33.07;99201.11;1869062;76;27925;-47
2023/03/27 06:01:54;;;;;;;0.10;0.10;;;;;;;25.13;32.62;99201.91;1871387;74;27754;-50
2023/03/27 06:04:44;;;;;;;0.20;0.10;;;;;;;25.14;32.78;99192.56;1864957;74;28017;-48
2023/03/27 06:07:34;;;;;;;0.10;0.10;;;;;;;25.12;32.95;99196.11;1870633;76;27922;-49
2023/03/27 06:10:26;;;;;;;0.10;0.10;;;;;;;25.11;33.09;99201.34;1857775;76;27790;-51
2023/03/27 06:13:23;;;;;;;0.10;0.10;;;;;;;25.13;33.16;99210.16;1872492;76;27876;-50
2023/03/27 06:16:14;;;;;;;0.10;0.10;;;;;;;25.13;33.27;99211.00;1877757;74;27723;-47
2023/03/27 06:19:07;;;;;;;0.15;0.15;;;;;;;25.12;33.30;99220.31;1826896;76;28225;-46
2023/03/27 06:21:57;;;;;;;0.20;0.20;;;;;;;25.13;33.34;99219.24;1835456;76;28184;-48
2023/03/27 06:24:45;;;;;;;0.00;0.00;;;;;;;25.15;33.36;99226.68;1851811;76;28218;-47
2023/03/27 06:27:36;;;;;;;0.10;0.10;;;;;;;25.16;33.38;99231.61;1871603;76;27738;-50
2023/03/27 06:30:28;;;;;;;0.10;0.10;;;;;;;25.20;33.35;99238.27;1860652;76;28167;-49
2023/03/27 06:33:18;;;;;;;0.50;0.10;;;;;;;25.21;33.37;99237.17;1836240;76;28317;-49
2023/03/27 06:36:09;;;;;;;0.10;0.10;;;;;;;25.22;33.38;99230.59;1867024;75;28208;-47
2023/03/27 06:39:05;;;;;;;0.00;0.00;;;;;;;25.25;33.42;99256.20;1849775;76;28217;-48
2023/03/27 06:41:50;;;;;;;0.30;0.20;;;;;;;25.23;33.55;99254.23;1855223;76;28142;-50
2023/03/27 06:44:40;;;;;;;0.20;0.20;;;;;;;25.22;33.60;99255.34;1874771;76;28349;-47
2023/03/27 06:47:38;;;;;;;0.57;0.42;;;;;;;25.24;33.65;99262.78;1899045;74;27996;-46
2023/03/27 06:50:33;;;;;;;0.20;0.20;;;;;;;25.19;33.71;99257.22;1881419;74;28011;-49
2023/03/27 06:53:22;;;;;;;1.10;0.23;;;;;;;25.21;33.81;99253.66;1873278;76;28010;-49
2023/03/27 06:56:11;;;;;;;0.30;0.30;;;;;;;25.22;33.84;99258.09;1892479;75;28105;-49
2023/03/27 06:59:18;;;;;;;1.10;0.40;;;;;;;25.24;33.86;99262.78;1890711;73;28104;-46
2023/03/27 07:02:11;;;;;;;0.30;0.25;;;;;;;25.21;34.01;99258.62;1910013;74;28081;-45
2023/03/27 07:05:08;;;;;;;1.10;0.25;;;;;;;25.23;34.30;99278.44;1870523;75;27831;-48
2023/03/27 07:08:01;;;;;;;0.10;0.10;;;;;;;25.26;34.46;99264.72;1861277;76;27753;-49
2023/03/27 07:10:52;;;;;;;0.70;0.30;;;;;;;25.24;34.56;99266.37;1827731;76;28345;-46
2023/03/27 07:13:41;;;;;;;0.67;0.13;;;;;;;25.25;34.75;99265.27;1838986;77;27813;-47
2023/03/27 07:16:31;;;;;;;0.75;0.20;;;;;;;25.26;34.66;99270.22;1834389;76;33684;-51
2023/03/27 07:19:21;;;;;;;2.10;0.30;;;;;;;25.27;34.63;99269.15;1863497;76;28366;-47
2023/03/27 07:22:10;;;;;;;0.10;0.10;;;;;;;25.25;34.71;99270.76;1842980;77;28305;-45
2023/03/27 07:24:59;;;;;;;0.60;0.30;;;;;;;25.30;34.67;99261.73;1831473;77;28217;-45
2023/03/27 07:27:50;;;;;;;0.10;0.10;;;;;;;25.32;34.63;99281.02;1871396;76;27751;-47
2023/03/27 07:30:40;;;;;;;0.10;0.10;;;;;;;25.32;34.72;99282.95;1870408;76;28290;-49
2023/03/27 07:33:30;;;;;;;0.40;0.10;;;;;;;25.33;34.70;99279.94;1840630;77;28091;-46
2023/03/27 07:36:18;;;;;;;0.20;0.10;;;;;;;25.35;34.71;99287.38;1855206;75;28214;-46
2023/03/27 07:39:08;;;;;;;0.10;0.10;;;;;;;25.39;34.67;99293.22;1872628;76;28125;-47
2023/03/27 07:41:58;;;;;;;1.30;0.20;;;;;;;25.36;34.73;99300.06;1860498;74;28249;-47
2023/03/27 07:44:54;;;;;;;0.57;0.25;;;;;;;25.37;34.75;99307.73;1874320;76;28056;-46
2023/03/27 07:47:45;;;;;;;0.40;0.40;;;;;;;25.39;34.71;99314.64;1866118;75;28064;-46
2023/03/27 07:50:33;;;;;;;0.07;0.07;;;;;;;25.41;34.71;99320.71;1869666;75;27986;-47
2023/03/27 07:53:22;;;;;;;0.20;0.10;;;;;;;25.39;34.68;99311.89;1802561;77;28195;-47
2023/03/27 07:56:12;;;;;;;0.28;0.28;;;;;;;25.41;34.70;99308.91;1849094;76;28201;-46
2023/03/27 07:59:02;;;;;;;0.20;0.20;;;;;;;25.41;34.72;99312.47;1838741;76;28190;-46
2023/03/27 08:01:51;;;;;;;0.30;0.10;;;;;;;25.42;34.72;99303.67;1820518;77;28361;-47
2023/03/27 08:04:40;;;;;;;0.40;0.20;;;;;;;25.42;34.70;99316.05;1813635;76;28159;-48
2023/03/27 08:07:31;;;;;;;0.20;0.20;;;;;;;25.44;34.68;99337.28;1840653;77;27825;-48
2023/03/27 08:10:20;;;;;;;0.15;0.15;;;;;;;25.45;34.63;99349.12;1830085;77;28278;-45
2023/03/27 08:13:17;;;;;;;0.10;0.10;;;;;;;25.44;34.64;99348.28;1831787;76;28342;-46
2023/03/27 08:16:09;;;;;;;0.10;0.10;;;;;;;25.48;34.58;99352.20;1813048;78;28260;-47
2023/03/27 08:18:59;;;;;;;0.05;0.05;;;;;;;25.49;34.56;99359.34;1817334;77;28136;-48
2023/03/27 08:21:47;;;;;;;0.60;0.13;;;;;;;25.51;34.47;99336.53;1831267;77;28361;-47
2023/03/27 08:24:36;;;;;;;0.40;0.20;;;;;;;25.48;34.50;99341.20;1855527;76;28259;-48
2023/03/27 08:27:30;;;;;;;1.30;0.20;;;;;;;25.44;34.50;99353.78;1845355;77;27749;-48
2023/03/27 08:30:20;;;;;;;0.30;0.30;;;;;;;25.45;34.56;99362.33;1850297;75;28256;-44
2023/03/27 08:33:10;;;;;;;0.20;0.20;;;;;;;25.49;34.47;99351.09;1862952;76;28160;-50
2023/03/27 08:35:59;;;;;;;0.20;0.10;;;;;;;25.51;34.45;99365.41;1839038;77;27797;-47
2023/03/27 08:38:49;;;;;;;0.20;0.20;;;;;;;25.51;34.41;99370.11;1840874;77;28207;-51
2023/03/27 08:41:54;;;;;;;0.10;0.10;;;;;;;25.49;34.44;99378.59;1809321;77;28169;-47
2023/03/27 08:44:45;;;;;;;0.20;0.20;;;;;;;25.49;34.39;99373.09;1835848;77;28111;-47
2023/03/27 08:47:41;;;;;;;0.13;0.13;;;;;;;25.52;34.32;99368.47;1801820;78;28351;-46
2023/03/27 08:50:40;;;;;;;0.20;0.20;;;;;;;25.50;34.33;99389.91;1865361;75;27781;-45
2023/03/27 08:53:39;;;;;;;0.65;0.17;;;;;;;25.50;34.32;99384.94;1853804;75;27677;-44
2023/03/27 08:56:28;;;;;;;0.30;0.20;;;;;;;25.52;34.29;99401.47;1839170;77;27999;-46
2023/03/27 08:59:23;;;;;;;0.10;0.10;;;;;;;25.53;34.31;99413.31;1856804;76;28180;-46
2023/03/27 09:02:34;;;;;;;1.00;0.10;;;;;;;25.51;34.26;99408.05;1826380;77;27805;-46
2023/03/27 09:05:26;;;;;;;1.40;0.20;;;;;;;25.51;34.25;99401.74;1822099;77;28146;-49
2023/03/27 09:08:24;;;;;;;0.60;0.30;;;;;;;25.51;34.29;99398.42;1840567;75;28414;-48
2023/03/27 09:11:38;;;;;;;0.13;0.13;;;;;;;25.51;34.31;99410.80;1840599;76;28097;-46
2023/03/27 09:14:33;;;;;;;0.10;0.10;;;;;;;25.50;34.25;99417.41;1839716;77;27683;-47
2023/03/27 09:17:26;;;;;;;0.40;0.10;;;;;;;25.50;34.31;99442.16;1831194;76;28206;-50
2023/03/27 09:20:28;;;;;;;0.33;0.17;;;;;;;25.52;34.29;99430.89;1823745;76;28690;-46
2023/03/27 09:23:40;;;;;;;0.10;0.10;;;;;;;25.51;34.29;99432.00;1855465;77;27773;-45
2023/03/27 09:26:36;;;;;;;0.40;0.10;;;;;;;25.52;34.26;99457.02;1823027;76;28199;-47
2023/03/27 09:29:30;;;;;;;0.05;0.05;;;;;;;25.49;34.27;99454.23;1835669;76;28269;-46
2023/03/27 09:32:31;;;;;;;0.10;0.10;;;;;;;25.49;34.24;99448.73;1846610;76;28006;-47
2023/03/27 09:35:21;;;;;;;0.10;0.10;;;;;;;25.49;34.26;99454.23;1847618;77;28171;-48
2023/03/27 09:38:23;;;;;;;0.10;0.10;;;;;;;25.47;34.33;99443.20;1844344;76;28222;-45
2023/03/27 09:41:14;;;;;;;0.10;0.10;;;;;;;25.49;34.25;99461.11;1858062;75;28160;-47
2023/03/27 09:44:24;;;;;;;0.20;0.20;;;;;;;25.52;34.22;99473.53;1812466;78;28257;-44
2023/03/27 09:47:32;;;;;;;0.10;0.10;;;;;;;25.55;34.17;99465.61;1853858;77;27795;-46
2023/03/27 09:50:34;;;;;;;0.10;0.10;;;;;;;25.53;34.17;99480.70;1821116;78;28312;-46
2023/03/27 09:53:26;;;;;;;0.93;0.10;;;;;;;25.47;34.22;99463.82;1819114;77;28217;-47
2023/03/27 09:56:19;;;;;;;0.50;0.10;;;;;;;25.47;34.15;99473.45;1804919;78;28274;-44
2023/03/27 09:59:12;;;;;;;0.10;0.10;;;;;;;25.51;34.10;99480.13;1859951;76;28002;-47
2023/03/27 10:02:09;;;;;;;0.10;0.10;;;;;;;25.49;34.02;99485.02;1824333;77;31139;-48
2023/03/27 10:05:03;;;;;;;0.15;0.15;;;;;;;25.50;34.04;99482.04;1828096;76;28117;-47
2023/03/27 10:07:56;;;;;;;0.20;0.20;;;;;;;25.48;33.94;99475.97;1824838;76;28068;-47
2023/03/27 10:11:00;;;;;;;0.10;0.10;;;;;;;25.51;33.86;99480.94;1858915;76;28186;-46
2023/03/27 10:13:54;;;;;;;0.10;0.10;;;;;;;25.49;33.83;99480.90;1851779;77;28209;-46
2023/03/27 10:16:46;;;;;;;0.15;0.15;;;;;;;25.47;33.79;99493.55;1852959;75;27730;-46
2023/03/27 10:19:38;;;;;;;0.17;0.17;;;;;;;25.48;33.62;99499.34;1793795;77;28147;-49
2023/03/27 10:22:31;;;;;;;0.30;0.30;;;;;;;25.46;33.65;99501.52;1839460;75;28259;-47
2023/03/27 10:25:22;;;;;;;0.10;0.10;;;;;;;25.49;33.48;99502.91;1861427;76;28025;-46
2023/03/27 10:28:20;;;;;;;0.10;0.10;;;;;;;25.47;33.47;99514.70;1882349;75;28754;-45
2023/03/27 10:31:30;;;;;;;0.20;0.20;;;;;;;25.51;33.36;99518.07;1859523;76;27813;-47
2023/03/27 10:34:42;;;;;;;0.30;0.20;;;;;;;25.51;33.38;99518.07;1847821;76;28064;-46
2023/03/27 10:37:46;;;;;;;0.87;0.20;;;;;;;25.46;33.39;99511.15;1827310;76;28055;-48
2023/03/27 10:40:38;;;;;;;0.25;0.25;;;;;;;25.43;33.21;99521.23;1778155;77;28253;-48
2023/03/27 10:43:40;;;;;;;0.30;0.30;;;;;;;25.43;33.25;99508.86;1850756;77;27700;-44
2023/03/27 10:46:30;;;;;;;0.80;0.25;;;;;;;25.46;33.19;99524.90;1826340;77;28194;-46
2023/03/27 10:49:35;;;;;;;0.30;0.28;;;;;;;25.48;33.05;99527.38;1823323;77;28321;-48
2023/03/27 10:52:27;;;;;;;1.03;0.53;;;;;;;25.45;32.99;99530.63;1901080;73;28079;-47
2023/03/27 10:55:35;;;;;;;1.80;0.55;;;;;;;25.46;32.91;99549.65;1916507;72;28092;-47
2023/03/27 10:58:48;;;;;;;0.40;0.40;;;;;;;25.45;32.84;99535.59;1932970;72;27628;-46
2023/03/27 11:01:44;;;;;;;0.53;0.50;;;;;;;25.48;32.79;99559.02;1919754;72;27627;-46
2023/03/27 11:04:36;;;;;;;1.30;0.62;;;;;;;25.44;32.84;99561.42;1933976;72;27683;-45
2023/03/27 11:07:36;;;;;;;0.90;0.40;;;;;;;25.44;32.74;99577.92;1933177;72;28072;-44
2023/03/27 11:10:44;;;;;;;0.62;0.60;;;;;;;25.44;32.79;99560.61;1924084;73;28124;-46
2023/03/27 11:13:37;;;;;;;1.20;0.40;;;;;;;25.44;32.73;99579.86;1923271;72;28044;-48
2023/03/27 11:16:30;;;;;;;0.80;0.40;;;;;;;25.40;32.64;99590.48;1919140;73;28258;-48
2023/03/27 11:19:41;;;;;;;0.43;0.43;;;;;;;25.39;32.71;99588.27;1930665;73;28170;-46
2023/03/27 11:22:43;;;;;;;0.30;0.30;;;;;;;25.40;32.78;99597.36;1935068;72;27606;-46
2023/03/27 11:25:37;;;;;;;0.62;0.62;;;;;;;25.41;32.71;99603.16;1938131;72;28037;-46
2023/03/27 11:28:30;;;;;;;0.80;0.50;;;;;;;25.42;32.74;99602.06;1915626;72;28148;-44
2023/03/27 11:31:33;;;;;;;0.40;0.40;;;;;;;25.39;32.77;99602.59;1928580;72;28097;-48
2023/03/27 11:34:46;;;;;;;0.70;0.40;;;;;;;25.41;32.67;99603.16;1930967;73;28037;-46
2023/03/27 11:37:55;;;;;;;0.80;0.42;;;;;;;25.40;32.74;99602.33;1893998;73;28175;-45
2023/03/27 11:40:55;;;;;;;1.30;0.40;;;;;;;25.37;32.75;99613.81;1919206;73;28100;-45
2023/03/27 11:43:39;;;;;;;0.93;0.50;;;;;;;25.37;32.79;99604.73;1916754;72;28138;-48
2023/03/27 11:46:49;;;;;;;1.45;0.50;;;;;;;25.41;32.69;99618.30;1924764;72;28152;-47
2023/03/27 11:49:53;;;;;;;0.47;0.45;;;;;;;25.41;32.64;99625.16;1929641;73;28033;-47
2023/03/27 11:52:46;;;;;;;0.70;0.60;;;;;;;25.35;32.72;99628.89;1871266;74;28034;-48
2023/03/27 11:55:54;;;;;;;1.10;0.30;;;;;;;25.32;32.76;99620.60;1869465;76;28082;-46
2023/03/27 11:59:05;;;;;;;0.50;0.50;;;;;;;25.35;32.62;99639.89;1850639;76;28254;-48
2023/03/27 12:01:56;;;;;;;0.53;0.53;;;;;;;25.35;32.54;99651.73;1863499;74;27972;-50
2023/03/27 12:04:48;;;;;;;0.55;0.33;;;;;;;25.36;32.47;99664.42;1858468;76;28289;-45
2023/03/27 12:08:20;;;;;;;0.25;0.25;;;;;;;25.37;32.36;99676.23;1855063;76;28037;-46
2023/03/27 12:11:11;;;;;;;0.47;0.30;;;;;;;25.31;32.42;99671.73;1857150;76;28081;-45
2023/03/27 12:14:25;;;;;;;0.68;0.68;;;;;;;25.28;32.47;99658.47;1875888;76;28108;-45
2023/03/27 12:17:43;;;;;;;1.30;0.40;;;;;;;25.29;32.43;99669.24;1875963;76;28103;-46
2023/03/27 12:20:42;;;;;;;0.45;0.40;;;;;;;25.29;32.32;99671.15;1815554;77;28154;-45
2023/03/27 12:23:50;;;;;;;0.42;0.42;;;;;;;25.28;32.34;99668.09;1874917;76;33916;-51
2023/03/27 12:26:49;;;;;;;0.60;0.45;;;;;;;25.31;32.16;99667.08;1836620;75;28083;-47
2023/03/27 12:29:58;;;;;;;0.50;0.30;;;;;;;25.28;32.19;99670.84;1793940;78;28281;-47
2023/03/27 12:32:59;;;;;;;0.70;0.47;;;;;;;25.28;32.13;99655.72;1875083;76;28055;-50
2023/03/27 12:35:52;;;;;;;0.90;0.50;;;;;;;25.28;32.17;99654.34;1799384;79;28260;-46
2023/03/27 12:38:43;;;;;;;0.50;0.33;;;;;;;25.29;32.02;99670.62;1772860;79;28270;-46
2023/03/27 12:41:34;;;;;;;0.80;0.50;;;;;;;25.28;31.91;99665.34;1831041;78;28180;-46
2023/03/27 12:44:33;;;;;;;1.00;0.50;;;;;;;25.31;31.81;99663.48;1831068;77;28286;-47
2023/03/27 12:47:27;;;;;;;0.72;0.42;;;;;;;25.31;31.80;99664.33;1831007;78;28188;-47
2023/03/27 12:50:22;;;;;;;0.50;0.50;;;;;;;25.29;31.72;99663.74;1835651;77;28200;-48
2023/03/27 12:53:32;;;;;;;0.40;0.40;;;;;;;25.25;31.88;99672.73;1813480;78;28215;-45
2023/03/27 12:56:26;;;;;;;1.00;0.50;;;;;;;25.29;31.74;99671.15;1812891;78;28112;-45
2023/03/27 12:59:23;;;;;;;1.70;0.42;;;;;;;25.24;31.85;99671.05;1831042;78;28192;-48
2023/03/27 13:02:27;;;;;;;0.30;0.30;;;;;;;25.28;31.76;99674.97;1831175;78;28163;-47
2023/03/27 13:05:26;;;;;;;0.50;0.50;;;;;;;25.24;31.76;99680.14;1831096;78;28290;-45
2023/03/27 13:08:20;;;;;;;1.22;0.40;;;;;;;25.24;31.74;99673.27;1831147;78;28166;-45
2023/03/27 13:11:31;;;;;;;0.50;0.50;;;;;;;25.22;31.73;99669.09;1831109;78;28191;-47
2023/03/27 13:14:35;;;;;;;0.30;0.30;;;;;;;25.26;31.69;99670.27;1831124;78;28157;-48
2023/03/27 13:17:45;;;;;;;0.42;0.42;;;;;;;25.20;31.67;99661.11;1795969;76;28099;-46
2023/03/27 13:20:49;;;;;;;0.30;0.30;;;;;;;25.21;31.62;99679.79;1887981;75;28455;-45
2023/03/27 13:24:06;;;;;;;0.40;0.40;;;;;;;25.19;31.57;99667.67;1819146;78;28281;-49
2023/03/27 13:27:32;;;;;;;0.50;0.50;;;;;;;25.19;31.61;99666.84;1877557;76;32008;-48
2023/03/27 13:30:49;;;;;;;0.50;0.50;;;;;;;25.18;31.56;99670.68;1799378;78;28625;-45
2023/03/27 13:34:28;;;;;;;0.60;0.30;;;;;;;25.19;31.44;99668.21;1875007;76;28112;-46
2023/03/27 13:37:20;;;;;;;0.47;0.47;;;;;;;25.14;31.45;99667.58;1860142;76;28083;-47
2023/03/27 13:40:22;;;;;;;0.50;0.50;;;;;;;25.15;31.37;99667.88;1855203;76;28035;-46
2023/03/27 13:43:21;;;;;;;0.37;0.35;;;;;;;25.14;31.46;99668.95;1831117;78;28111;-45
2023/03/27 13:46:17;;;;;;;0.40;0.40;;;;;;;25.20;31.30;99665.23;1811402;77;28362;-47